createdAt,value
2022-12-04T00:01:12.913Z,10.33
2022-12-04T00:03:42.304Z,10.03
2022-12-04T00:06:13.482Z,10.30
2022-12-04T00:08:43.092Z,10.03
2022-12-04T00:11:15.390Z,9.20
2022-12-04T00:13:44.546Z,9.07
2022-12-04T00:16:15.673Z,9.33
2022-12-04T00:18:45.093Z,8.77
2022-12-04T00:21:15.661Z,10.57
2022-12-04T00:23:45.108Z,11.20
2022-12-04T00:26:17.513Z,10.87
2022-12-04T00:28:47.563Z,10.80
2022-12-04T00:31:19.130Z,11.17
2022-12-04T00:33:48.553Z,10.30
2022-12-04T00:36:19.195Z,11.10
2022-12-04T00:38:50.350Z,11.40
2022-12-04T00:41:23.935Z,11.40
2022-12-04T00:43:52.903Z,11.80
2022-12-04T00:46:22.340Z,13.30
2022-12-04T00:48:51.745Z,14.03
2022-12-04T00:51:23.203Z,13.90
2022-12-04T00:53:53.059Z,12.63
2022-12-04T00:56:26.812Z,12.37
2022-12-04T00:58:56.959Z,11.83
2022-12-04T01:01:27.133Z,10.40
2022-12-04T01:03:57.105Z,8.83
2022-12-04T01:06:28.372Z,9.13
2022-12-04T01:08:58.806Z,8.80
2022-12-04T01:11:30.662Z,12.17
2022-12-04T01:14:04.897Z,16.17
2022-12-04T01:16:36.645Z,17.20
2022-12-04T01:19:06.696Z,26.00
2022-12-04T01:21:36.782Z,34.93
2022-12-04T01:24:06.886Z,36.43
2022-12-04T01:26:55.552Z,32.00
2022-12-04T01:29:24.420Z,31.63
2022-12-04T01:31:53.504Z,45.10
2022-12-04T01:34:22.419Z,53.80
2022-12-04T01:36:51.768Z,46.50
2022-12-04T01:39:21.085Z,46.90
2022-12-04T01:41:52.031Z,41.67
2022-12-04T01:44:24.388Z,59.33
2022-12-04T01:47:04.823Z,63.17
2022-12-04T01:49:41.489Z,51.43
2022-12-04T01:52:21.192Z,59.43
2022-12-04T01:54:57.341Z,65.03
2022-12-04T01:57:31.286Z,75.70
2022-12-04T02:00:20.587Z,68.33
2022-12-04T02:02:49.848Z,92.80
2022-12-04T02:05:22.040Z,76.47
2022-12-04T02:07:53.750Z,73.60
2022-12-04T02:10:24.865Z,72.17
2022-12-04T02:13:02.427Z,69.60
2022-12-04T02:15:40.551Z,68.30
2022-12-04T02:18:15.300Z,67.23
2022-12-04T02:20:50.305Z,62.33
2022-12-04T02:23:47.659Z,61.77
2022-12-04T02:26:31.626Z,57.30
2022-12-04T02:29:06.777Z,57.80
2022-12-04T02:31:40.855Z,54.00
2022-12-04T02:34:16.043Z,57.43
2022-12-04T02:36:50.713Z,49.40
2022-12-04T02:39:24.494Z,68.63
2022-12-04T02:41:59.131Z,81.90
2022-12-04T02:44:33.916Z,75.23
2022-12-04T02:47:06.215Z,25.97
2022-12-04T02:49:40.438Z,14.50
2022-12-04T02:52:12.558Z,11.93
2022-12-04T02:54:44.376Z,10.13
2022-12-04T02:57:17.626Z,10.50
2022-12-04T02:59:51.163Z,9.90
2022-12-04T03:02:24.644Z,11.20
2022-12-04T03:04:55.243Z,10.93
2022-12-04T03:07:35.859Z,10.40
2022-12-04T03:10:11.165Z,10.33
2022-12-04T03:12:45.812Z,10.10
2022-12-04T03:15:20.826Z,10.83
2022-12-04T03:17:54.899Z,11.20
2022-12-04T03:20:24.831Z,11.70
2022-12-04T03:23:00.374Z,11.33
2022-12-04T03:25:36.940Z,10.37
2022-12-04T03:28:11.869Z,10.10
2022-12-04T03:30:48.493Z,9.83
2022-12-04T03:33:42.651Z,15.43
2022-12-04T03:36:19.464Z,73.20
2022-12-04T03:38:56.099Z,59.17
2022-12-04T03:41:29.407Z,32.00
2022-12-04T03:44:05.629Z,46.07
2022-12-04T03:46:40.038Z,22.47
2022-12-04T03:49:14.940Z,19.33
2022-12-04T03:51:49.381Z,14.53
2022-12-04T03:54:21.908Z,12.17
2022-12-04T03:56:55.873Z,12.53
2022-12-04T03:59:51.015Z,12.30
2022-12-04T04:02:29.471Z,32.17
2022-12-04T04:05:01.670Z,17.60
2022-12-04T04:07:35.709Z,108.37
2022-12-04T04:10:13.002Z,30.67
2022-12-04T04:12:45.849Z,26.57
2022-12-04T04:15:34.450Z,33.13
2022-12-04T04:18:22.348Z,19.23
2022-12-04T04:21:13.562Z,18.27
2022-12-04T04:24:03.705Z,17.67
2022-12-04T04:26:37.397Z,13.37
2022-12-04T04:29:06.467Z,16.53
2022-12-04T04:31:41.012Z,14.50
2022-12-04T04:34:18.014Z,12.63
2022-12-04T04:36:55.629Z,14.37
2022-12-04T04:39:33.400Z,16.30
2022-12-04T04:42:08.152Z,12.10
2022-12-04T04:44:46.418Z,23.87
2022-12-04T04:47:20.001Z,26.10
2022-12-04T04:49:53.596Z,15.47
2022-12-04T04:52:25.131Z,24.43
2022-12-04T04:54:54.389Z,12.70
2022-12-04T04:57:30.856Z,16.30
2022-12-04T04:59:59.737Z,15.70
2022-12-04T05:02:29.260Z,14.90
2022-12-04T05:04:59.595Z,14.40
2022-12-04T05:07:28.539Z,16.47
2022-12-04T05:09:57.716Z,14.37
2022-12-04T05:12:26.825Z,11.73
2022-12-04T05:14:55.691Z,11.70
2022-12-04T05:17:24.445Z,11.17
2022-12-04T05:19:57.230Z,10.97
2022-12-04T05:22:31.800Z,11.83
2022-12-04T05:25:01.182Z,11.63
2022-12-04T05:27:31.494Z,11.37
2022-12-04T05:30:00.863Z,11.33
2022-12-04T05:32:30.742Z,11.10
2022-12-04T05:35:00.203Z,11.87
2022-12-04T05:37:30.448Z,11.67
2022-12-04T05:39:59.445Z,10.70
2022-12-04T05:42:28.339Z,10.33
2022-12-04T05:44:57.280Z,10.13
2022-12-04T05:47:26.358Z,10.30
2022-12-04T05:49:55.427Z,11.00
2022-12-04T05:52:24.514Z,13.20
2022-12-04T05:54:54.907Z,13.57
2022-12-04T05:57:42.289Z,11.80
2022-12-04T06:00:12.785Z,11.17
2022-12-04T06:02:42.077Z,9.63
2022-12-04T06:05:11.364Z,9.03
2022-12-04T06:07:40.393Z,8.67
2022-12-04T06:10:11.173Z,9.13
2022-12-04T06:12:40.206Z,8.87
2022-12-04T06:15:09.935Z,9.53
2022-12-04T06:17:39.619Z,9.23
2022-12-04T06:20:11.794Z,9.30
2022-12-04T06:22:41.149Z,9.23
2022-12-04T06:25:12.134Z,10.03
2022-12-04T06:27:44.762Z,9.60
2022-12-04T06:30:32.293Z,10.00
2022-12-04T06:33:01.400Z,10.30
2022-12-04T06:35:50.225Z,11.00
2022-12-04T06:38:24.987Z,10.50
2022-12-04T06:40:57.730Z,10.47
2022-12-04T06:43:28.849Z,10.93
2022-12-04T06:46:05.782Z,11.33
2022-12-04T06:48:35.353Z,9.60
2022-12-04T06:51:07.670Z,10.10
2022-12-04T06:53:37.085Z,9.70
2022-12-04T06:56:09.749Z,9.37
2022-12-04T06:58:39.125Z,10.50
2022-12-04T07:01:09.555Z,11.93
2022-12-04T07:03:39.780Z,11.37
2022-12-04T07:06:16.235Z,14.07
2022-12-04T07:08:46.065Z,10.07
2022-12-04T07:11:17.530Z,9.80
2022-12-04T07:13:46.598Z,10.53
2022-12-04T07:16:17.186Z,12.10
2022-12-04T07:18:46.446Z,10.97
2022-12-04T07:21:19.402Z,11.50
2022-12-04T07:23:51.647Z,10.13
2022-12-04T07:26:22.585Z,11.97
2022-12-04T07:31:21.962Z,12.07
2022-12-04T07:33:51.831Z,11.00
2022-12-04T07:36:22.410Z,11.67
2022-12-04T07:38:51.704Z,12.93
2022-12-04T07:41:22.240Z,16.10
2022-12-04T07:43:51.065Z,13.93
2022-12-04T07:46:22.100Z,16.97
2022-12-04T07:48:51.212Z,14.13
2022-12-04T07:51:21.918Z,16.30
2022-12-04T07:53:53.310Z,14.30
2022-12-04T07:56:23.962Z,12.50
2022-12-04T07:58:53.033Z,16.93
2022-12-04T08:01:23.528Z,13.63
2022-12-04T08:03:53.669Z,12.20
2022-12-04T08:06:24.454Z,14.13
2022-12-04T08:08:54.658Z,13.73
2022-12-04T08:11:26.933Z,13.77
2022-12-04T08:13:57.052Z,14.67
2022-12-04T08:16:26.718Z,13.27
2022-12-04T08:18:56.146Z,11.97
2022-12-04T08:21:29.123Z,13.00
2022-12-04T08:23:59.581Z,12.70
2022-12-04T08:26:31.453Z,11.53
2022-12-04T08:29:01.839Z,12.07
2022-12-04T08:31:33.245Z,13.53
2022-12-04T08:34:04.116Z,13.50
2022-12-04T08:36:33.810Z,12.43
2022-12-04T08:39:02.890Z,12.70
2022-12-04T08:41:33.475Z,13.97
2022-12-04T08:44:02.860Z,10.70
2022-12-04T08:46:32.053Z,12.37
2022-12-04T08:49:01.323Z,11.00
2022-12-04T08:51:32.131Z,11.00
2022-12-04T08:54:02.852Z,19.63
2022-12-04T08:56:33.819Z,17.50
2022-12-04T08:59:03.229Z,13.40
2022-12-04T09:01:52.697Z,24.20
2022-12-04T09:04:21.829Z,16.07
2022-12-04T09:06:51.088Z,19.43
2022-12-04T09:09:19.901Z,17.83
2022-12-04T09:11:50.619Z,17.90
2022-12-04T09:14:25.849Z,28.40
2022-12-04T09:16:55.084Z,28.40
2022-12-04T09:19:24.016Z,46.63
2022-12-04T09:21:53.094Z,48.67
2022-12-04T09:24:22.974Z,51.20
2022-12-04T09:26:53.411Z,22.40
2022-12-04T09:29:22.450Z,22.40
2022-12-04T09:31:51.695Z,20.40
2022-12-04T09:34:20.598Z,19.30
2022-12-04T09:36:52.613Z,16.13
2022-12-04T09:39:21.523Z,12.60
2022-12-04T09:42:21.441Z,20.83
2022-12-04T09:44:56.338Z,21.40
2022-12-04T09:47:30.179Z,23.50
2022-12-04T09:50:04.981Z,25.83
2022-12-04T09:52:57.538Z,24.87
2022-12-04T09:55:29.648Z,19.43
2022-12-04T09:58:02.632Z,16.47
2022-12-04T10:00:33.947Z,19.17
2022-12-04T10:03:05.984Z,24.30
2022-12-04T10:06:00.149Z,21.53
2022-12-04T10:08:31.225Z,20.10
2022-12-04T10:11:11.884Z,12.63
2022-12-04T10:14:20.929Z,17.70
2022-12-04T10:17:15.017Z,12.53
2022-12-04T10:19:50.791Z,11.77
2022-12-04T10:22:26.803Z,13.03
2022-12-04T10:24:58.194Z,12.47
2022-12-04T10:27:31.503Z,12.87
2022-12-04T10:30:06.180Z,14.97
2022-12-04T10:32:36.226Z,13.67
2022-12-04T10:35:17.600Z,11.60
2022-12-04T10:37:47.401Z,11.00
2022-12-04T10:40:23.005Z,11.13
2022-12-04T10:42:58.009Z,16.40
2022-12-04T10:45:28.439Z,16.30
2022-12-04T10:48:24.332Z,13.07
2022-12-04T10:50:53.448Z,13.43
2022-12-04T10:53:30.593Z,13.00
2022-12-04T10:56:11.326Z,14.73
2022-12-04T10:58:40.364Z,13.10
2022-12-04T11:01:14.209Z,12.97
2022-12-04T11:03:47.004Z,13.83
2022-12-04T11:06:19.674Z,16.73
2022-12-04T11:08:53.165Z,17.07
2022-12-04T11:11:39.030Z,16.43
2022-12-04T11:14:17.317Z,24.57
2022-12-04T11:16:53.060Z,18.83
2022-12-04T11:19:27.763Z,21.20
2022-12-04T11:22:03.184Z,30.80
2022-12-04T11:24:39.414Z,42.93
2022-12-04T11:27:18.828Z,25.60
2022-12-04T11:29:52.699Z,22.90
2022-12-04T11:32:48.440Z,18.40
2022-12-04T11:35:24.269Z,26.03
2022-12-04T11:38:19.424Z,20.73
2022-12-04T11:40:52.280Z,45.70
2022-12-04T11:43:24.760Z,36.93
2022-12-04T11:45:58.638Z,21.33
2022-12-04T11:48:31.588Z,15.50
2022-12-04T11:51:09.296Z,17.30
2022-12-04T11:53:45.849Z,18.20
2022-12-04T11:56:24.733Z,19.13
2022-12-04T11:59:18.063Z,40.97
2022-12-04T12:01:57.914Z,43.93
2022-12-04T12:05:09.028Z,29.10
2022-12-04T12:07:48.179Z,37.40
2022-12-04T12:10:22.835Z,34.13
2022-12-04T12:13:04.578Z,32.13
2022-12-04T12:15:42.623Z,27.23
2022-12-04T12:18:23.254Z,28.40
2022-12-04T12:21:03.486Z,33.00
2022-12-04T12:23:47.307Z,32.27
2022-12-04T12:26:18.886Z,20.47
2022-12-04T12:29:03.509Z,17.83
2022-12-04T12:31:54.467Z,16.43
2022-12-04T12:34:32.308Z,16.40
2022-12-04T12:37:12.115Z,17.97
2022-12-04T12:39:44.431Z,16.83
2022-12-04T12:42:20.235Z,17.10
2022-12-04T12:44:55.497Z,16.93
2022-12-04T12:47:29.652Z,16.50
2022-12-04T12:50:03.524Z,18.20
2022-12-04T12:52:39.691Z,21.07
2022-12-04T12:55:19.574Z,18.00
2022-12-04T12:57:54.257Z,21.43
2022-12-04T13:00:25.756Z,21.63
2022-12-04T13:03:01.568Z,21.13
2022-12-04T13:05:37.237Z,17.77
2022-12-04T13:08:17.339Z,18.47
2022-12-04T13:10:50.265Z,19.90
2022-12-04T13:13:26.152Z,21.00
2022-12-04T13:16:00.813Z,20.47
2022-12-04T13:18:33.818Z,20.53
2022-12-04T13:21:06.619Z,26.63
2022-12-04T13:23:55.663Z,22.77
2022-12-04T13:26:40.894Z,27.93
2022-12-04T13:29:19.169Z,33.33
2022-12-04T13:31:55.359Z,31.97
2022-12-04T13:34:52.668Z,31.60
2022-12-04T13:37:45.706Z,29.63
2022-12-04T13:40:32.127Z,27.87
2022-12-04T13:43:22.023Z,25.67
2022-12-04T13:45:53.423Z,27.17
2022-12-04T13:48:30.951Z,25.80
2022-12-04T13:51:40.666Z,24.17
2022-12-04T13:54:33.964Z,23.00
2022-12-04T13:57:22.325Z,26.47
2022-12-04T13:59:51.792Z,23.10
2022-12-04T14:02:29.254Z,24.30
2022-12-04T14:05:03.159Z,25.23
2022-12-04T14:07:37.706Z,24.23
2022-12-04T14:10:09.780Z,28.27
2022-12-04T14:12:43.488Z,28.93
2022-12-04T14:15:24.277Z,31.20
2022-12-04T14:18:01.479Z,35.33
2022-12-04T14:20:32.738Z,50.17
2022-12-04T14:23:26.948Z,56.53
2022-12-04T14:25:57.953Z,44.40
2022-12-04T14:28:42.779Z,46.27
2022-12-04T14:31:23.239Z,46.40
2022-12-04T14:33:57.775Z,49.93
2022-12-04T14:36:28.995Z,55.60
2022-12-04T14:39:09.723Z,53.37
2022-12-04T14:41:40.073Z,53.13
2022-12-04T14:44:24.591Z,50.17
2022-12-04T14:46:56.764Z,47.87
2022-12-04T14:49:38.580Z,51.93
2022-12-04T14:52:14.520Z,44.67
2022-12-04T14:54:52.968Z,30.63
2022-12-04T14:57:41.255Z,31.17
2022-12-04T15:00:19.414Z,29.90
2022-12-04T15:02:50.532Z,30.13
2022-12-04T15:05:23.493Z,30.67
2022-12-04T15:07:55.142Z,30.60
2022-12-04T15:10:44.078Z,28.97
2022-12-04T15:13:17.278Z,28.63
2022-12-04T15:15:52.460Z,28.60
2022-12-04T15:18:21.529Z,27.57
2022-12-04T15:20:58.071Z,28.30
2022-12-04T15:23:30.325Z,29.03
2022-12-04T15:26:01.127Z,25.47
2022-12-04T15:28:33.156Z,26.30
2022-12-04T15:31:07.312Z,26.00
2022-12-04T15:33:38.689Z,29.07
2022-12-04T15:36:13.452Z,30.73
2022-12-04T15:38:42.777Z,32.00
2022-12-04T15:41:31.607Z,28.63
2022-12-04T15:44:01.076Z,26.47
2022-12-04T15:46:35.664Z,26.37
2022-12-04T15:49:19.481Z,25.70
2022-12-04T15:51:51.415Z,25.50
2022-12-04T15:54:25.515Z,22.77
2022-12-04T15:57:03.110Z,21.77
2022-12-04T15:59:32.752Z,21.50
2022-12-04T16:02:09.070Z,20.57
2022-12-04T16:04:44.036Z,20.67
2022-12-04T16:07:22.812Z,19.40
2022-12-04T16:10:01.065Z,21.13
2022-12-04T16:12:33.872Z,21.13
2022-12-04T16:15:03.925Z,20.07
2022-12-04T16:17:36.715Z,18.40
2022-12-04T16:20:07.625Z,19.33
2022-12-04T16:22:36.738Z,18.23
2022-12-04T16:25:06.023Z,17.13
2022-12-04T16:27:34.948Z,16.20
2022-12-04T16:30:04.122Z,17.57
2022-12-04T16:32:35.892Z,17.37
2022-12-04T16:35:04.981Z,19.37
2022-12-04T16:37:34.051Z,20.00
2022-12-04T16:40:06.669Z,23.17
2022-12-04T16:42:40.681Z,26.70
2022-12-04T16:45:23.797Z,26.00
2022-12-04T16:47:54.274Z,25.87
2022-12-04T16:50:23.379Z,26.10
2022-12-04T16:52:52.260Z,26.17
2022-12-04T16:55:22.816Z,23.53
2022-12-04T16:57:52.446Z,24.37
2022-12-04T17:00:21.906Z,24.03
2022-12-04T17:02:50.852Z,22.70
2022-12-04T17:05:23.317Z,23.50
2022-12-04T17:07:52.488Z,20.30
2022-12-04T17:10:24.215Z,20.83
2022-12-04T17:12:54.534Z,20.60
2022-12-04T17:15:23.958Z,20.77
2022-12-04T17:17:53.214Z,19.40
2022-12-04T17:20:23.785Z,21.23
2022-12-04T17:22:52.725Z,20.83
2022-12-04T17:25:21.803Z,22.03
2022-12-04T17:27:50.745Z,21.43
2022-12-04T17:30:19.988Z,22.83
2022-12-04T17:32:49.428Z,29.70
2022-12-04T17:35:18.474Z,35.97
2022-12-04T17:37:48.707Z,38.50
2022-12-04T17:40:17.774Z,39.10
2022-12-04T17:42:46.735Z,40.70
2022-12-04T17:45:17.071Z,40.07
2022-12-04T17:47:46.003Z,36.27
2022-12-04T17:50:16.965Z,37.53
2022-12-04T17:52:47.654Z,32.03
2022-12-04T17:55:18.780Z,31.67
2022-12-04T17:57:48.203Z,31.20
2022-12-04T18:00:18.147Z,32.93
2022-12-04T18:02:53.015Z,31.93
2022-12-04T18:05:22.788Z,30.47
2022-12-04T18:07:53.626Z,30.60
2022-12-04T18:10:22.623Z,28.83
2022-12-04T18:12:51.832Z,29.83
2022-12-04T18:15:20.937Z,28.70
2022-12-04T18:17:50.152Z,28.93
2022-12-04T18:20:20.902Z,26.43
2022-12-04T18:22:49.762Z,25.23
2022-12-04T18:25:20.020Z,24.53
2022-12-04T18:27:48.888Z,24.73
2022-12-04T18:30:18.126Z,24.30
2022-12-04T18:32:48.179Z,23.50
2022-12-04T18:35:17.411Z,20.20
2022-12-04T18:37:47.277Z,20.57
2022-12-04T18:40:16.316Z,21.00
2022-12-04T18:42:46.934Z,19.97
2022-12-04T18:45:16.114Z,22.13
2022-12-04T18:47:44.971Z,22.33
2022-12-04T18:50:14.429Z,20.47
2022-12-04T18:52:43.412Z,20.93
2022-12-04T18:55:12.309Z,22.07
2022-12-04T18:57:41.773Z,21.97
2022-12-04T19:00:13.061Z,22.40
2022-12-04T19:02:42.193Z,21.40
2022-12-04T19:05:11.198Z,22.10
2022-12-04T19:07:40.385Z,22.20
2022-12-04T19:10:11.465Z,23.20
2022-12-04T19:12:40.840Z,25.57
2022-12-04T19:15:12.277Z,28.63
2022-12-04T19:17:41.386Z,29.40
2022-12-04T19:20:11.389Z,29.63
2022-12-04T19:22:41.035Z,30.17
2022-12-04T19:25:10.756Z,54.70
2022-12-04T19:27:39.550Z,96.33
2022-12-04T19:30:09.549Z,78.63
2022-12-04T19:32:39.929Z,40.10
2022-12-04T19:35:09.780Z,37.40
2022-12-04T19:37:41.961Z,32.50
2022-12-04T19:40:13.921Z,31.90
2022-12-04T19:42:42.910Z,30.90
2022-12-04T19:45:12.164Z,29.93
2022-12-04T19:47:42.794Z,23.80
2022-12-04T19:50:13.718Z,23.10
2022-12-04T19:52:44.290Z,23.90
2022-12-04T19:55:13.458Z,22.53
2022-12-04T19:57:42.368Z,21.33
2022-12-04T20:00:11.992Z,21.53
2022-12-04T20:02:43.675Z,22.03
2022-12-04T20:05:13.355Z,22.63
2022-12-04T20:07:42.508Z,23.30
2022-12-04T20:10:12.096Z,21.07
2022-12-04T20:12:40.956Z,21.27
2022-12-04T20:15:10.726Z,23.57
2022-12-04T20:17:39.832Z,23.97
2022-12-04T20:20:11.276Z,25.17
2022-12-04T20:22:40.450Z,27.20
2022-12-04T20:25:10.071Z,30.33
2022-12-04T20:27:39.101Z,33.73
2022-12-04T20:30:09.729Z,29.90
2022-12-04T20:32:38.799Z,26.23
2022-12-04T20:35:11.262Z,25.03
2022-12-04T20:37:42.289Z,24.27
2022-12-04T20:40:12.478Z,24.83
2022-12-04T20:42:41.935Z,24.20
2022-12-04T20:45:12.062Z,24.83
2022-12-04T20:47:41.738Z,26.13
2022-12-04T20:50:12.259Z,26.07
2022-12-04T20:52:41.184Z,24.97
2022-12-04T20:55:11.199Z,25.00
2022-12-04T20:57:40.154Z,25.27
2022-12-04T21:00:10.350Z,25.93
2022-12-04T21:02:39.363Z,26.43
2022-12-04T21:05:09.076Z,26.00
2022-12-04T21:07:39.534Z,24.83
2022-12-04T21:10:09.845Z,27.40
2022-12-04T21:12:59.995Z,26.80
2022-12-04T21:15:46.411Z,24.80
2022-12-04T21:18:15.535Z,25.10
2022-12-04T21:21:03.796Z,25.50
2022-12-04T21:23:36.195Z,25.57
2022-12-04T21:26:05.378Z,25.37
2022-12-04T21:28:34.388Z,26.67
2022-12-04T21:31:04.105Z,28.17
2022-12-04T21:33:35.416Z,27.73
2022-12-04T21:36:05.166Z,28.07
2022-12-04T21:38:36.417Z,27.47
2022-12-04T21:41:07.163Z,26.53
2022-12-04T21:43:38.223Z,26.47
2022-12-04T21:46:10.037Z,27.27
2022-12-04T21:48:57.386Z,27.83
2022-12-04T21:51:55.094Z,27.50
2022-12-04T21:54:16.680Z,28.03
2022-12-04T21:56:45.750Z,29.80
2022-12-04T21:59:14.633Z,28.10
2022-12-04T22:01:44.306Z,30.03
2022-12-04T22:04:13.365Z,27.70
2022-12-04T22:06:42.227Z,28.40
2022-12-04T22:09:12.727Z,28.73
2022-12-04T22:11:44.125Z,27.17
2022-12-04T22:14:13.620Z,26.40
2022-12-04T22:16:43.407Z,27.53
2022-12-04T22:19:13.991Z,27.80
2022-12-04T22:21:43.104Z,27.60
2022-12-04T22:24:12.269Z,27.47
2022-12-04T22:26:42.694Z,28.13
2022-12-04T22:29:42.038Z,27.27
2022-12-04T22:32:01.664Z,27.80
2022-12-04T22:34:30.828Z,28.33
2022-12-04T22:36:59.736Z,27.93
2022-12-04T22:39:28.873Z,28.33
2022-12-04T22:41:59.303Z,28.30
2022-12-04T22:44:31.076Z,27.73
2022-12-04T22:47:00.116Z,27.90
2022-12-04T22:49:29.079Z,27.73
2022-12-04T22:52:01.833Z,26.83
2022-12-04T22:54:30.965Z,27.83
2022-12-04T22:57:01.402Z,27.13
2022-12-04T22:59:30.484Z,27.50
2022-12-04T23:02:00.275Z,27.10
2022-12-04T23:04:29.424Z,26.40
2022-12-04T23:06:58.244Z,25.70
2022-12-04T23:09:28.132Z,27.50
2022-12-04T23:11:57.723Z,25.80
2022-12-04T23:14:29.114Z,25.87
2022-12-04T23:16:58.309Z,26.63
2022-12-04T23:19:27.397Z,26.77
2022-12-04T23:21:57.380Z,26.47
2022-12-04T23:24:26.717Z,25.70
2022-12-04T23:26:55.688Z,26.57
2022-12-04T23:29:54.140Z,26.30
2022-12-04T23:32:14.757Z,26.30
2022-12-04T23:34:43.666Z,25.40
2022-12-04T23:37:12.619Z,26.03
2022-12-04T23:39:41.578Z,25.63
2022-12-04T23:42:10.543Z,25.90
2022-12-04T23:44:39.299Z,26.00
2022-12-04T23:47:08.288Z,25.87
2022-12-04T23:49:38.721Z,25.50
2022-12-04T23:52:07.666Z,26.63
2022-12-04T23:54:37.769Z,25.40
2022-12-04T23:57:06.635Z,25.23
2022-12-04T23:59:35.513Z,25.73
